Time;durP1;ratioP1;P1;durP2;ratioP2;P2;SDS_P1;SDS_P2;PMS_P1;PMS_P2;Temp;Humidity;BMP_temperature;BMP_pressure;BME280_temperature;BME280_humidity;BME280_pressure;Samples;Min_cycle;Max_cycle;Signal;HPM_P1;HPM_P2
2022/06/05 00:00:27;;;;;;;13.13;9.60;;;;;;;;;;6276604;22;20366;-69
2022/06/05 00:02:55;;;;;;;12.63;9.50;;;;;;;;;;6249805;22;20469;-69
2022/06/05 00:05:32;;;;;;;14.48;9.68;;;;;;;;;;6276344;22;20015;-69
2022/06/05 00:08:11;;;;;;;15.13;9.93;;;;;;;;;;6276533;22;20039;-69
2022/06/05 00:10:42;;;;;;;17.20;10.65;;;;;;;;;;6276449;22;20361;-69
2022/06/05 00:13:25;;;;;;;11.82;9.23;;;;;;;;;;6276459;22;20066;-69
2022/06/05 00:15:53;;;;;;;10.82;9.15;;;;;;;;;;6276301;22;20430;-69
2022/06/05 00:18:20;;;;;;;11.60;9.85;;;;;;;;;;6276417;22;20015;-69
2022/06/05 00:20:48;;;;;;;14.75;9.75;;;;;;;;;;6276422;22;20090;-69
2022/06/05 00:23:15;;;;;;;11.43;9.32;;;;;;;;;;6276442;22;20012;-69
2022/06/05 00:26:01;;;;;;;12.45;9.63;;;;;;;;;;6276195;22;20346;-69
2022/06/05 00:28:29;;;;;;;13.40;9.50;;;;;;;;;;6276258;22;20198;-69
2022/06/05 00:30:56;;;;;;;11.13;9.98;;;;;;;;;;6276306;22;20022;-69
2022/06/05 00:33:27;;;;;;;11.85;10.13;;;;;;;;;;6276343;22;20468;-69
2022/06/05 00:36:00;;;;;;;11.93;9.27;;;;;;;;;;6276220;22;20085;-69
2022/06/05 00:38:39;;;;;;;11.32;9.75;;;;;;;;;;6276179;22;20081;-69
2022/06/05 00:41:26;;;;;;;10.88;9.77;;;;;;;;;;6276090;22;20346;-70
2022/06/05 00:43:56;;;;;;;12.98;10.60;;;;;;;;;;6276533;22;20338;-69
2022/06/05 00:46:24;;;;;;;12.10;9.88;;;;;;;;;;6276049;22;20026;-69
2022/06/05 00:48:52;;;;;;;14.05;9.77;;;;;;;;;;6276217;22;20459;-69
2022/06/05 00:51:19;;;;;;;13.70;9.85;;;;;;;;;;6275770;22;20015;-70
2022/06/05 00:53:48;;;;;;;10.70;9.63;;;;;;;;;;6276178;22;20038;-69
2022/06/05 00:56:16;;;;;;;12.93;10.25;;;;;;;;;;6275859;22;20019;-72
2022/06/05 00:58:43;;;;;;;12.38;9.48;;;;;;;;;;6275980;22;20012;-69
2022/06/05 01:01:11;;;;;;;12.05;9.85;;;;;;;;;;6276105;22;20502;-69
2022/06/05 01:03:38;;;;;;;11.27;9.80;;;;;;;;;;6276059;22;20531;-69
2022/06/05 01:06:06;;;;;;;14.88;10.18;;;;;;;;;;6275859;22;20011;-70
2022/06/05 01:08:34;;;;;;;14.50;10.85;;;;;;;;;;6276038;22;20020;-69
2022/06/05 01:11:05;;;;;;;12.40;10.40;;;;;;;;;;6276059;22;20381;-70
2022/06/05 01:13:50;;;;;;;15.95;9.88;;;;;;;;;;6276035;22;20045;-69
2022/06/05 01:16:18;;;;;;;12.40;10.13;;;;;;;;;;6275938;22;20016;-69
2022/06/05 01:19:04;;;;;;;12.88;10.23;;;;;;;;;;6275974;22;20016;-70
2022/06/05 01:21:47;;;;;;;13.88;10.50;;;;;;;;;;6275970;22;20015;-70
2022/06/05 01:24:23;;;;;;;14.77;11.40;;;;;;;;;;6275726;22;20031;-70
2022/06/05 01:26:54;;;;;;;14.88;11.07;;;;;;;;;;6275687;22;20504;-69
2022/06/05 01:29:29;;;;;;;12.35;11.00;;;;;;;;;;6275931;22;20099;-70
2022/06/05 01:32:04;;;;;;;13.98;10.02;;;;;;;;;;6275728;22;20015;-68
2022/06/05 01:34:31;;;;;;;;;;;;;;;;;;6276564;22;20012;-68
2022/06/05 01:36:59;;;;;;;14.52;10.75;;;;;;;;;;6275512;22;19922;-68
2022/06/05 01:39:50;;;;;;;12.02;10.13;;;;;;;;;;6248897;22;20015;-68
2022/06/05 01:42:22;;;;;;;11.82;9.63;;;;;;;;;;6275515;22;20043;-68
2022/06/05 01:44:52;;;;;;;14.93;10.70;;;;;;;;;;6275314;22;20019;-68
2022/06/05 01:47:25;;;;;;;12.15;10.77;;;;;;;;;;6275423;22;20073;-68
2022/06/05 01:50:01;;;;;;;15.27;10.57;;;;;;;;;;6275585;22;20012;-68
2022/06/05 01:52:33;;;;;;;14.23;10.48;;;;;;;;;;6275468;22;20019;-68
2022/06/05 01:55:03;;;;;;;17.38;11.02;;;;;;;;;;6275527;22;20038;-68
2022/06/05 01:57:31;;;;;;;15.73;10.35;;;;;;;;;;6275290;22;20098;-68
2022/06/05 02:00:02;;;;;;;13.23;10.70;;;;;;;;;;6275323;22;20016;-68
2022/06/05 02:02:36;;;;;;;14.68;10.20;;;;;;;;;;6275338;22;20454;-68
2022/06/05 02:05:09;;;;;;;15.80;10.95;;;;;;;;;;6275578;22;20016;-68
2022/06/05 02:07:39;;;;;;;13.73;9.85;;;;;;;;;;6275403;22;20020;-68
2022/06/05 02:10:13;;;;;;;16.17;11.55;;;;;;;;;;6277526;22;20012;-68
2022/06/05 02:12:40;;;;;;;11.32;10.23;;;;;;;;;;6277611;22;20458;-68
2022/06/05 02:15:08;;;;;;;12.70;10.05;;;;;;;;;;6250837;22;20019;-68
2022/06/05 02:17:36;;;;;;;12.95;10.20;;;;;;;;;;6277411;22;20022;-68
2022/06/05 02:20:07;;;;;;;14.00;10.15;;;;;;;;;;6277433;22;20023;-68
2022/06/05 02:22:37;;;;;;;12.98;10.18;;;;;;;;;;6277445;22;20024;-68
2022/06/05 02:25:06;;;;;;;14.32;9.82;;;;;;;;;;6277308;22;20027;-68
2022/06/05 02:27:33;;;;;;;11.80;10.55;;;;;;;;;;6277358;22;20019;-68
2022/06/05 02:30:01;;;;;;;12.20;10.30;;;;;;;;;;6277655;22;20085;-68
2022/06/05 02:32:38;;;;;;;11.93;9.75;;;;;;;;;;6277132;22;20019;-68
2022/06/05 02:35:14;;;;;;;11.48;10.00;;;;;;;;;;6277582;22;20042;-68
2022/06/05 02:38:00;;;;;;;15.68;11.00;;;;;;;;;;6277147;22;20035;-68
2022/06/05 02:40:28;;;;;;;16.10;10.73;;;;;;;;;;6277311;22;20015;-68
2022/06/05 02:43:03;;;;;;;16.10;11.38;;;;;;;;;;6276879;22;20061;-68
2022/06/05 02:45:35;;;;;;;15.40;10.63;;;;;;;;;;6277304;22;20026;-68
2022/06/05 02:48:06;;;;;;;14.48;10.93;;;;;;;;;;6250200;22;20023;-68
2022/06/05 02:50:37;;;;;;;14.75;11.13;;;;;;;;;;6277326;22;20503;-68
2022/06/05 02:53:06;;;;;;;13.98;11.13;;;;;;;;;;6277382;22;20548;-68
2022/06/05 02:55:34;;;;;;;15.88;11.13;;;;;;;;;;6277366;22;20515;-68
2022/06/05 02:58:01;;;;;;;13.80;11.45;;;;;;;;;;6276918;22;20020;-68
2022/06/05 03:00:31;;;;;;;13.07;11.20;;;;;;;;;;6277294;22;20079;-68
2022/06/05 03:05:45;;;;;;;12.77;11.38;;;;;;;;;;6277245;22;20079;-68
2022/06/05 03:08:15;;;;;;;12.20;10.85;;;;;;;;;;6277139;22;20016;-70
2022/06/05 03:10:44;;;;;;;19.17;11.48;;;;;;;;;;6277054;22;20042;-69
2022/06/05 03:13:12;;;;;;;14.55;11.23;;;;;;;;;;6277052;22;20015;-68
2022/06/05 03:15:43;;;;;;;17.77;11.25;;;;;;;;;;6276968;22;20015;-68
2022/06/05 03:18:12;;;;;;;15.35;12.50;;;;;;;;;;6277131;22;20019;-68
2022/06/05 03:20:41;;;;;;;32.20;29.10;;;;;;;;;;6276997;22;20039;-68
2022/06/05 03:23:10;;;;;;;104.43;93.88;;;;;;;;;;6277267;22;20020;-68
2022/06/05 03:25:39;;;;;;;259.08;234.57;;;;;;;;;;6277081;22;20110;-68
2022/06/05 03:28:07;;;;;;;259.27;234.75;;;;;;;;;;6276908;22;20050;-68
2022/06/05 03:30:36;;;;;;;244.68;222.10;;;;;;;;;;6276947;22;20083;-68
2022/06/05 03:33:04;;;;;;;144.30;131.18;;;;;;;;;;6276943;22;20023;-68
2022/06/05 03:35:31;;;;;;;62.05;56.15;;;;;;;;;;6277017;22;20022;-68
2022/06/05 03:37:59;;;;;;;46.55;36.38;;;;;;;;;;6276910;22;20020;-70
2022/06/05 03:40:27;;;;;;;50.08;37.90;;;;;;;;;;6276996;22;20085;-68
2022/06/05 03:42:55;;;;;;;42.78;28.27;;;;;;;;;;6276785;22;20018;-68
2022/06/05 03:45:22;;;;;;;44.60;29.67;;;;;;;;;;6250258;22;20438;-68
2022/06/05 03:47:50;;;;;;;77.28;43.55;;;;;;;;;;6276612;22;20015;-67
2022/06/05 03:50:18;;;;;;;84.68;42.88;;;;;;;;;;6250035;22;20038;-68
2022/06/05 03:52:46;;;;;;;65.63;36.20;;;;;;;;;;6276773;22;20020;-70
2022/06/05 03:55:16;;;;;;;57.47;32.78;;;;;;;;;;6276313;22;20015;-67
2022/06/05 03:57:43;;;;;;;33.03;21.42;;;;;;;;;;6276386;22;20035;-67
2022/06/05 04:00:11;;;;;;;28.23;18.67;;;;;;;;;;6276354;22;20016;-67
2022/06/05 04:02:39;;;;;;;25.58;18.10;;;;;;;;;;6277021;22;20031;-68
2022/06/05 04:05:08;;;;;;;24.10;15.68;;;;;;;;;;6276567;22;20027;-70
2022/06/05 04:07:35;;;;;;;30.17;17.60;;;;;;;;;;6276568;22;20077;-69
2022/06/05 04:10:03;;;;;;;24.45;15.70;;;;;;;;;;6276589;22;20015;-70
2022/06/05 04:12:31;;;;;;;32.20;23.42;;;;;;;;;;6276448;22;20024;-69
2022/06/05 04:15:00;;;;;;;26.90;18.52;;;;;;;;;;6276534;22;20016;-69
2022/06/05 04:17:27;;;;;;;23.58;15.60;;;;;;;;;;6276496;22;20039;-68
2022/06/05 04:19:55;;;;;;;29.08;18.45;;;;;;;;;;6276458;22;20016;-67
2022/06/05 04:22:22;;;;;;;67.78;35.38;;;;;;;;;;6276254;22;20027;-67
2022/06/05 04:24:50;;;;;;;62.58;31.25;;;;;;;;;;6276403;22;20065;-68
2022/06/05 04:27:17;;;;;;;57.22;28.42;;;;;;;;;;6276100;22;20016;-70
2022/06/05 04:29:45;;;;;;;58.45;27.00;;;;;;;;;;6276561;22;20015;-69
2022/06/05 04:32:12;;;;;;;88.93;39.88;;;;;;;;;;6276101;22;20019;-70
2022/06/05 04:34:40;;;;;;;34.95;20.30;;;;;;;;;;6276459;22;20016;-69
2022/06/05 04:37:07;;;;;;;18.13;10.77;;;;;;;;;;6248987;22;20406;-69
2022/06/05 04:39:35;;;;;;;72.40;36.40;;;;;;;;;;6276359;22;20038;-70
2022/06/05 04:42:02;;;;;;;48.30;26.20;;;;;;;;;;6276160;22;20020;-69
2022/06/05 04:44:30;;;;;;;27.52;16.13;;;;;;;;;;6276570;22;20035;-69
2022/06/05 04:46:57;;;;;;;33.75;20.30;;;;;;;;;;6275935;22;20011;-69
2022/06/05 04:49:25;;;;;;;42.75;24.00;;;;;;;;;;6276327;22;20019;-69
2022/06/05 04:51:52;;;;;;;28.48;19.83;;;;;;;;;;6276016;22;20477;-69
2022/06/05 04:54:20;;;;;;;21.85;12.88;;;;;;;;;;6276116;22;20019;-69
2022/06/05 04:56:47;;;;;;;20.42;13.43;;;;;;;;;;6276069;22;20015;-69
2022/06/05 04:59:15;;;;;;;26.08;19.60;;;;;;;;;;6275926;22;20016;-69
2022/06/05 05:01:43;;;;;;;24.85;15.07;;;;;;;;;;6249132;22;20015;-74
2022/06/05 05:04:11;;;;;;;20.08;13.77;;;;;;;;;;6276252;22;20016;-79
2022/06/05 05:06:39;;;;;;;17.83;14.77;;;;;;;;;;6275808;22;20039;-78
2022/06/05 05:09:07;;;;;;;32.67;16.23;;;;;;;;;;6277273;22;20430;-80
2022/06/05 05:11:35;;;;;;;19.00;13.63;;;;;;;;;;6249319;22;20011;-80
2022/06/05 05:14:03;;;;;;;24.33;15.10;;;;;;;;;;6275844;22;20015;-80
2022/06/05 05:16:30;;;;;;;22.83;14.30;;;;;;;;;;6248489;22;20338;-79
2022/06/05 05:19:05;;;;;;;22.48;16.27;;;;;;;;;;6275711;22;20011;-80
2022/06/05 05:21:33;;;;;;;23.75;16.02;;;;;;;;;;6276079;22;20019;-80
2022/06/05 05:24:00;;;;;;;21.50;17.77;;;;;;;;;;6275647;22;20019;-79
2022/06/05 05:26:29;;;;;;;63.20;50.95;;;;;;;;;;6275712;22;20019;-80
2022/06/05 05:28:57;;;;;;;30.35;22.92;;;;;;;;;;6276193;22;20021;-81
2022/06/05 05:31:27;;;;;;;39.45;30.25;;;;;;;;;;6275949;22;20087;-81
2022/06/05 05:33:56;;;;;;;18.80;13.35;;;;;;;;;;6275928;22;20019;-82
2022/06/05 05:36:24;;;;;;;20.73;17.98;;;;;;;;;;6276789;22;20464;-81
2022/06/05 05:44:31;;;;;;;19.42;16.50;;;;;;;;;;6277360;22;20012;-72
2022/06/05 05:46:58;;;;;;;21.65;18.13;;;;;;;;;;6277222;22;20073;-72
2022/06/05 05:49:26;;;;;;;19.95;17.85;;;;;;;;;;6277285;22;20311;-72
2022/06/05 05:51:53;;;;;;;18.33;14.57;;;;;;;;;;6277381;22;20023;-71
2022/06/05 05:54:21;;;;;;;22.00;18.60;;;;;;;;;;6277509;22;20036;-73
2022/06/05 05:56:48;;;;;;;17.42;15.57;;;;;;;;;;6277366;22;20030;-71
2022/06/05 05:59:16;;;;;;;15.80;14.02;;;;;;;;;;6277571;22;20103;-72
2022/06/05 06:01:43;;;;;;;15.43;13.82;;;;;;;;;;6277644;22;20023;-70
2022/06/05 06:04:11;;;;;;;16.98;14.05;;;;;;;;;;6277721;22;20030;-70
2022/06/05 06:06:41;;;;;;;18.55;14.40;;;;;;;;;;6277581;22;20026;-70
2022/06/05 06:09:08;;;;;;;14.45;12.43;;;;;;;;;;6250288;22;20027;-69
2022/06/05 06:11:36;;;;;;;14.40;10.50;;;;;;;;;;6277978;22;20023;-71
2022/06/05 06:14:04;;;;;;;14.82;11.10;;;;;;;;;;6277716;22;20086;-69
2022/06/05 06:16:31;;;;;;;14.70;12.95;;;;;;;;;;6277699;22;20022;-69
2022/06/05 06:18:59;;;;;;;13.10;10.65;;;;;;;;;;6277552;22;20020;-69
2022/06/05 06:21:26;;;;;;;16.42;11.27;;;;;;;;;;6277550;22;20020;-69
2022/06/05 06:23:59;;;;;;;12.77;11.55;;;;;;;;;;6277555;22;20050;-70
2022/06/05 06:26:27;;;;;;;17.80;15.90;;;;;;;;;;6277846;22;20030;-70
2022/06/05 06:28:54;;;;;;;15.20;12.55;;;;;;;;;;6248643;22;20622;-70
2022/06/05 06:31:22;;;;;;;14.82;12.50;;;;;;;;;;6249956;22;20376;-71
2022/06/05 06:33:50;;;;;;;16.52;11.20;;;;;;;;;;6249847;22;20429;-70
2022/06/05 06:36:18;;;;;;;13.18;11.82;;;;;;;;;;6277140;22;20023;-69
2022/06/05 06:39:06;;;;;;;12.80;10.82;;;;;;;;;;6276750;22;20449;-67
2022/06/05 06:41:33;;;;;;;18.95;11.50;;;;;;;;;;6276275;22;20015;-68
2022/06/05 06:44:04;;;;;;;13.18;10.63;;;;;;;;;;6276613;22;20030;-69
2022/06/05 06:46:32;;;;;;;14.77;11.57;;;;;;;;;;6249948;22;20078;-67
2022/06/05 06:48:59;;;;;;;16.10;11.50;;;;;;;;;;6274230;22;20066;-68
2022/06/05 06:51:27;;;;;;;15.77;12.57;;;;;;;;;;6276201;22;20329;-68
2022/06/05 06:53:54;;;;;;;11.75;10.13;;;;;;;;;;6276655;22;20481;-69
2022/06/05 06:56:24;;;;;;;13.70;8.98;;;;;;;;;;6277143;22;20022;-69
2022/06/05 06:58:54;;;;;;;13.80;10.85;;;;;;;;;;6276870;22;20016;-68
2022/06/05 07:01:22;;;;;;;12.00;8.52;;;;;;;;;;6277114;22;20012;-68
2022/06/05 07:03:50;;;;;;;12.00;10.52;;;;;;;;;;6277039;22;20019;-68
2022/06/05 07:06:17;;;;;;;10.27;8.75;;;;;;;;;;6277332;22;20442;-69
2022/06/05 07:08:45;;;;;;;9.40;8.50;;;;;;;;;;6277037;22;20022;-68
2022/06/05 07:11:16;;;;;;;16.27;11.35;;;;;;;;;;6276814;22;20030;-67
2022/06/05 07:13:48;;;;;;;14.40;10.57;;;;;;;;;;6249948;22;20349;-68
2022/06/05 07:16:16;;;;;;;12.85;9.98;;;;;;;;;;6277037;22;20039;-69
2022/06/05 07:18:43;;;;;;;10.63;8.82;;;;;;;;;;6276729;22;20019;-69
2022/06/05 07:21:12;;;;;;;8.90;7.72;;;;;;;;;;6276998;22;20016;-68
2022/06/05 07:23:40;;;;;;;12.18;9.63;;;;;;;;;;6276861;22;20051;-68
2022/06/05 07:26:10;;;;;;;11.30;8.65;;;;;;;;;;6277472;22;20069;-69
2022/06/05 07:28:38;;;;;;;12.20;10.25;;;;;;;;;;6277091;22;20016;-69
2022/06/05 07:31:08;;;;;;;10.90;8.90;;;;;;;;;;6277030;22;20019;-70
2022/06/05 07:33:36;;;;;;;17.27;13.90;;;;;;;;;;6276970;22;20023;-69
2022/06/05 07:36:05;;;;;;;10.98;8.52;;;;;;;;;;6277259;22;20020;-69
2022/06/05 07:38:34;;;;;;;18.08;15.73;;;;;;;;;;6276901;22;20026;-70
2022/06/05 07:41:02;;;;;;;13.57;10.20;;;;;;;;;;6248075;22;20012;-70
2022/06/05 07:43:29;;;;;;;49.70;42.00;;;;;;;;;;6276593;22;20015;-70
2022/06/05 07:45:57;;;;;;;38.38;34.50;;;;;;;;;;6276757;22;20023;-70
2022/06/05 07:48:24;;;;;;;23.33;16.00;;;;;;;;;;6276634;22;20020;-71
2022/06/05 07:56:33;;;;;;;10.40;9.07;;;;;;;;;;6276694;22;20016;-70
2022/06/05 07:59:01;;;;;;;10.75;8.27;;;;;;;;;;6276520;22;20019;-71
2022/06/05 08:01:48;;;;;;;13.00;9.77;;;;;;;;;;6249621;22;20016;-70
2022/06/05 08:04:16;;;;;;;15.15;9.98;;;;;;;;;;6276785;22;20093;-71
2022/06/05 08:06:49;;;;;;;34.08;6.90;;;;;;;;;;6276166;22;20018;-70
2022/06/05 08:09:17;;;;;;;12.65;8.57;;;;;;;;;;6276453;22;20027;-70
2022/06/05 08:11:45;;;;;;;13.02;9.88;;;;;;;;;;6276513;22;20042;-71
2022/06/05 08:14:14;;;;;;;10.23;6.50;;;;;;;;;;6276562;22;20027;-71
2022/06/05 08:16:46;;;;;;;12.70;8.63;;;;;;;;;;6276644;22;20020;-71
2022/06/05 08:19:15;;;;;;;39.05;31.65;;;;;;;;;;6276518;22;20381;-71
2022/06/05 08:21:42;;;;;;;17.10;10.50;;;;;;;;;;6276470;22;20012;-71
2022/06/05 08:24:10;;;;;;;14.23;9.52;;;;;;;;;;6276465;22;20433;-70
2022/06/05 08:26:38;;;;;;;16.10;11.07;;;;;;;;;;6276744;22;20065;-71
2022/06/05 08:29:06;;;;;;;19.90;14.45;;;;;;;;;;6249167;22;20027;-71
2022/06/05 08:31:34;;;;;;;11.27;9.07;;;;;;;;;;6276687;22;20011;-71
2022/06/05 08:34:02;;;;;;;11.80;9.45;;;;;;;;;;6276419;22;20456;-71
2022/06/05 08:36:30;;;;;;;10.75;7.78;;;;;;;;;;6276364;22;20008;-71
2022/06/05 08:41:56;;;;;;;23.10;20.65;;;;;;;;;;6276312;22;20012;-70
2022/06/05 08:44:27;;;;;;;11.70;8.60;;;;;;;;;;6276378;22;20026;-70
2022/06/05 08:46:57;;;;;;;11.65;8.85;;;;;;;;;;6276269;22;20073;-71
2022/06/05 08:49:37;;;;;;;12.80;9.48;;;;;;;;;;6276286;22;20094;-71
2022/06/05 08:52:17;;;;;;;15.18;13.75;;;;;;;;;;6248996;22;20078;-71
2022/06/05 08:54:50;;;;;;;40.05;35.78;;;;;;;;;;6276128;22;20011;-69
2022/06/05 08:57:19;;;;;;;56.17;50.38;;;;;;;;;;6276204;22;20103;-69
2022/06/05 08:59:56;;;;;;;13.40;11.35;;;;;;;;;;6275745;22;20012;-69
2022/06/05 09:02:42;;;;;;;15.25;12.40;;;;;;;;;;6276082;22;20012;-69
2022/06/05 09:05:24;;;;;;;11.65;9.98;;;;;;;;;;6276154;22;20315;-69
2022/06/05 09:07:55;;;;;;;11.15;7.97;;;;;;;;;;6276464;22;20019;-70
2022/06/05 09:10:28;;;;;;;16.45;12.88;;;;;;;;;;6276087;22;20082;-69
2022/06/05 09:12:59;;;;;;;15.00;12.23;;;;;;;;;;6248910;22;20484;-69
2022/06/05 09:15:35;;;;;;;31.50;28.08;;;;;;;;;;6275834;22;20384;-69
2022/06/05 09:18:09;;;;;;;18.55;14.65;;;;;;;;;;6275912;22;20093;-69
2022/06/05 09:20:55;;;;;;;12.98;11.02;;;;;;;;;;6276525;22;20369;-71
2022/06/05 09:23:37;;;;;;;13.43;11.18;;;;;;;;;;6277248;22;20090;-69
2022/06/05 09:26:05;;;;;;;31.23;27.50;;;;;;;;;;6275975;22;20016;-70
2022/06/05 09:28:46;;;;;;;31.05;27.77;;;;;;;;;;6275534;22;20442;-69
2022/06/05 09:31:29;;;;;;;21.40;14.63;;;;;;;;;;6275665;22;20019;-69
2022/06/05 09:33:58;;;;;;;13.77;11.43;;;;;;;;;;6275732;22;20028;-69
2022/06/05 09:36:28;;;;;;;14.10;10.80;;;;;;;;;;6275699;22;20069;-69
2022/06/05 09:38:59;;;;;;;14.30;11.32;;;;;;;;;;6275582;22;20027;-68
2022/06/05 09:41:26;;;;;;;15.35;12.68;;;;;;;;;;6275663;22;20012;-68
2022/06/05 09:44:03;;;;;;;11.77;10.57;;;;;;;;;;6275732;22;20019;-68
2022/06/05 09:46:33;;;;;;;12.95;10.43;;;;;;;;;;6275391;22;20019;-69
2022/06/05 09:49:04;;;;;;;13.25;9.82;;;;;;;;;;6248326;22;20026;-70
2022/06/05 09:51:32;;;;;;;12.25;9.35;;;;;;;;;;6275243;22;20479;-70
2022/06/05 09:54:08;;;;;;;11.90;9.85;;;;;;;;;;6275465;22;20016;-70
2022/06/05 09:59:40;;;;;;;12.23;8.70;;;;;;;;;;6227819;22;20058;-72
2022/06/05 10:02:08;;;;;;;13.25;8.25;;;;;;;;;;6275324;22;20043;-71
2022/06/05 10:04:36;;;;;;;30.73;26.73;;;;;;;;;;6275606;22;20015;-71
2022/06/05 10:07:29;;;;;;;15.60;8.75;;;;;;;;;;6275706;22;20015;-71
2022/06/05 10:09:57;;;;;;;16.23;9.82;;;;;;;;;;6275351;22;20023;-72
2022/06/05 10:12:27;;;;;;;15.35;11.00;;;;;;;;;;6248143;22;20027;-73
2022/06/05 10:14:59;;;;;;;9.15;7.22;;;;;;;;;;6275262;22;20047;-72
2022/06/05 10:17:33;;;;;;;8.43;6.90;;;;;;;;;;6275598;22;20022;-72
2022/06/05 10:20:20;;;;;;;6.88;6.18;;;;;;;;;;6275485;22;20026;-71
2022/06/05 10:22:55;;;;;;;9.38;7.32;;;;;;;;;;6274683;22;20024;-71
2022/06/05 10:25:27;;;;;;;8.70;6.65;;;;;;;;;;6275229;22;20066;-71
2022/06/05 10:27:56;;;;;;;7.43;5.63;;;;;;;;;;6274970;22;20403;-73
2022/06/05 10:30:29;;;;;;;6.78;5.60;;;;;;;;;;6276792;22;20043;-72
2022/06/05 10:33:16;;;;;;;8.43;5.50;;;;;;;;;;6277419;22;20446;-73
2022/06/05 10:36:03;;;;;;;11.43;9.80;;;;;;;;;;6277287;22;20022;-72
2022/06/05 10:38:38;;;;;;;17.95;16.10;;;;;;;;;;6230292;22;20040;-72
2022/06/05 10:41:18;;;;;;;8.55;6.28;;;;;;;;;;6276909;22;20079;-73
2022/06/05 10:43:48;;;;;;;8.48;6.22;;;;;;;;;;6249909;22;20020;-72
2022/06/05 10:46:21;;;;;;;10.07;5.78;;;;;;;;;;6277193;22;20012;-72
2022/06/05 10:48:56;;;;;;;8.07;7.18;;;;;;;;;;6250221;22;20073;-72
2022/06/05 10:51:49;;;;;;;7.47;5.57;;;;;;;;;;6277248;22;20022;-72
2022/06/05 10:54:37;;;;;;;9.40;5.40;;;;;;;;;;6231723;22;20016;-72
2022/06/05 10:57:16;;;;;;;10.35;5.78;;;;;;;;;;6277272;22;20530;-72
2022/06/05 10:59:59;;;;;;;6.90;6.20;;;;;;;;;;6276804;22;20035;-71
2022/06/05 11:02:27;;;;;;;9.38;5.60;;;;;;;;;;6277508;22;20061;-72
2022/06/05 11:05:13;;;;;;;7.40;5.03;;;;;;;;;;6276904;22;20019;-74
2022/06/05 11:07:55;;;;;;;8.07;5.93;;;;;;;;;;6277075;22;20091;-71
2022/06/05 11:13:39;;;;;;;7.07;4.97;;;;;;;;;;6277028;22;20026;-71
2022/06/05 11:13:43;;;;;;;15.30;5.97;;;;;;;;;;6277084;22;20087;-72
2022/06/05 11:16:14;;;;;;;13.82;5.90;;;;;;;;;;6249695;22;20011;-76
2022/06/05 11:18:44;;;;;;;8.93;5.00;;;;;;;;;;6249955;22;20106;-75
2022/06/05 11:21:13;;;;;;;7.10;5.45;;;;;;;;;;6276939;22;20533;-74
2022/06/05 11:23:49;;;;;;;8.90;5.95;;;;;;;;;;6276949;22;20038;-74
2022/06/05 11:26:21;;;;;;;10.75;8.13;;;;;;;;;;6276765;22;20074;-74
2022/06/05 11:29:05;;;;;;;6.60;5.15;;;;;;;;;;6276600;22;20102;-75
2022/06/05 11:31:38;;;;;;;10.50;7.43;;;;;;;;;;6276912;22;20016;-74
2022/06/05 11:34:24;;;;;;;9.03;4.57;;;;;;;;;;6276801;22;20019;-74
2022/06/05 11:36:56;;;;;;;5.90;4.50;;;;;;;;;;6276626;22;20245;-75
2022/06/05 11:39:26;;;;;;;7.97;4.30;;;;;;;;;;6276836;22;20396;-73
2022/06/05 11:42:14;;;;;;;7.28;4.40;;;;;;;;;;6276183;22;20086;-74
2022/06/05 11:44:51;;;;;;;6.72;5.00;;;;;;;;;;6256464;22;20026;-73
2022/06/05 11:47:29;;;;;;;6.65;4.90;;;;;;;;;;6250600;22;20024;-75
2022/06/05 11:50:12;;;;;;;6.35;4.03;;;;;;;;;;6274513;22;20097;-75
2022/06/05 11:53:00;;;;;;;7.43;3.85;;;;;;;;;;6276198;22;20054;-74
2022/06/05 11:55:46;;;;;;;9.57;4.38;;;;;;;;;;6255862;22;20091;-74
2022/06/05 11:58:17;;;;;;;6.72;4.78;;;;;;;;;;6275747;22;20011;-74
2022/06/05 12:00:45;;;;;;;7.82;4.82;;;;;;;;;;6249039;22;20020;-75
2022/06/05 12:03:25;;;;;;;6.47;4.20;;;;;;;;;;6276207;22;20083;-74
2022/06/05 12:06:01;;;;;;;6.63;4.38;;;;;;;;;;6249342;22;20050;-75
2022/06/05 12:08:36;;;;;;;6.75;4.30;;;;;;;;;;6276283;22;20102;-75
2022/06/05 12:11:04;;;;;;;5.35;4.25;;;;;;;;;;6276405;22;20346;-75
2022/06/05 12:13:55;;;;;;;5.22;4.63;;;;;;;;;;6275356;22;20012;-75
2022/06/05 12:16:28;;;;;;;5.72;4.65;;;;;;;;;;6249616;22;20089;-74
2022/06/05 12:19:18;;;;;;;8.57;4.00;;;;;;;;;;6275954;22;20461;-76
2022/06/05 12:21:56;;;;;;;7.72;4.80;;;;;;;;;;6203822;22;20099;-74
2022/06/05 12:24:29;;;;;;;7.90;4.63;;;;;;;;;;6275796;22;20332;-75
2022/06/05 12:27:17;;;;;;;6.10;4.30;;;;;;;;;;6276163;22;20086;-77
2022/06/05 12:29:51;;;;;;;5.43;4.15;;;;;;;;;;6275927;22;20501;-69
2022/06/05 12:32:28;;;;;;;5.43;4.72;;;;;;;;;;6275497;22;20401;-75
2022/06/05 12:35:12;;;;;;;9.07;6.43;;;;;;;;;;6275426;22;20488;-75
2022/06/05 12:37:47;;;;;;;9.55;5.38;;;;;;;;;;6276000;22;20351;-72
2022/06/05 12:40:17;;;;;;;8.40;5.50;;;;;;;;;;6276227;22;20019;-72
2022/06/05 12:43:20;;;;;;;6.85;4.63;;;;;;;;;;6275824;22;20383;-71
2022/06/05 12:45:48;;;;;;;5.22;4.00;;;;;;;;;;6152270;23;20075;-71
2022/06/05 12:48:15;;;;;;;5.68;4.43;;;;;;;;;;6253354;22;20092;-71
2022/06/05 12:50:43;;;;;;;6.40;4.30;;;;;;;;;;6275715;22;20464;-71
2022/06/05 12:53:13;;;;;;;7.22;4.93;;;;;;;;;;6275288;22;20434;-72
2022/06/05 12:55:45;;;;;;;6.47;4.50;;;;;;;;;;6275714;22;20066;-72
2022/06/05 12:58:22;;;;;;;10.70;6.30;;;;;;;;;;6275832;22;20100;-70
2022/06/05 13:00:50;;;;;;;11.02;6.43;;;;;;;;;;6248564;22;20020;-70
2022/06/05 13:03:25;;;;;;;16.20;8.23;;;;;;;;;;6275656;22;20087;-69
2022/06/05 13:05:56;;;;;;;12.13;6.65;;;;;;;;;;6275869;22;20026;-69
2022/06/05 13:08:30;;;;;;;12.23;6.47;;;;;;;;;;6275786;22;20016;-68
2022/06/05 13:11:04;;;;;;;5.78;3.67;;;;;;;;;;6248707;22;20020;-69
2022/06/05 13:13:38;;;;;;;11.13;4.15;;;;;;;;;;6275419;22;20015;-69
2022/06/05 13:16:07;;;;;;;4.82;3.38;;;;;;;;;;6275283;22;20015;-70
2022/06/05 13:18:35;;;;;;;7.60;4.22;;;;;;;;;;6274827;22;20315;-69
2022/06/05 13:21:12;;;;;;;6.25;4.10;;;;;;;;;;6247742;22;20091;-67
2022/06/05 13:23:42;;;;;;;7.43;3.70;;;;;;;;;;6274938;22;20023;-66
2022/06/05 13:26:13;;;;;;;4.30;2.90;;;;;;;;;;6275054;22;20023;-66
2022/06/05 13:28:40;;;;;;;4.63;2.63;;;;;;;;;;6275213;22;20007;-66
2022/06/05 13:31:44;;;;;;;5.05;2.35;;;;;;;;;;6275511;22;20361;-66
2022/06/05 13:34:12;;;;;;;5.72;2.90;;;;;;;;;;6127737;23;20053;-75
2022/06/05 13:36:49;;;;;;;6.07;4.43;;;;;;;;;;6226270;22;20015;-66
2022/06/05 13:39:22;;;;;;;4.45;2.35;;;;;;;;;;6275159;22;20026;-72
2022/06/05 13:42:09;;;;;;;4.53;2.55;;;;;;;;;;6275447;22;20016;-70
2022/06/05 13:44:37;;;;;;;5.15;2.60;;;;;;;;;;6274965;22;20087;-70
2022/06/05 13:47:27;;;;;;;3.25;2.40;;;;;;;;;;6275225;22;20016;-70
2022/06/05 13:49:58;;;;;;;3.20;2.50;;;;;;;;;;6275173;22;20039;-70
2022/06/05 13:52:28;;;;;;;3.60;2.63;;;;;;;;;;6273840;22;20015;-70
2022/06/05 13:55:07;;;;;;;5.65;3.10;;;;;;;;;;6275266;22;20019;-67
2022/06/05 13:57:39;;;;;;;6.07;2.50;;;;;;;;;;6275434;22;20026;-67
2022/06/05 14:00:27;;;;;;;5.43;3.15;;;;;;;;;;6275243;22;20038;-67
2022/06/05 14:03:00;;;;;;;3.10;2.75;;;;;;;;;;6275318;22;20472;-67
2022/06/05 14:05:37;;;;;;;5.20;3.55;;;;;;;;;;6276433;22;20015;-69
2022/06/05 14:08:08;;;;;;;5.20;3.42;;;;;;;;;;6277180;22;20019;-69
2022/06/05 14:10:59;;;;;;;7.85;3.85;;;;;;;;;;6277264;22;20016;-66
2022/06/05 14:13:27;;;;;;;4.20;3.00;;;;;;;;;;6277245;22;20043;-70
2022/06/05 14:15:57;;;;;;;5.78;3.25;;;;;;;;;;6277688;22;20051;-71
2022/06/05 14:18:31;;;;;;;5.65;3.10;;;;;;;;;;6277364;22;20016;-71
2022/06/05 14:20:59;;;;;;;;;;;;;;;;;;6277400;22;20051;-72
2022/06/05 14:23:28;;;;;;;7.63;3.30;;;;;;;;;;6276413;22;19915;-71
2022/06/05 14:26:04;;;;;;;5.95;3.22;;;;;;;;;;6276721;22;20023;-72
2022/06/05 14:28:36;;;;;;;5.07;3.97;;;;;;;;;;6276051;22;20026;-71
2022/06/05 14:31:14;;;;;;;5.63;3.45;;;;;;;;;;6276211;22;20015;-71
2022/06/05 14:33:46;;;;;;;24.65;12.75;;;;;;;;;;6277086;22;20311;-71
2022/06/05 14:36:18;;;;;;;9.07;4.80;;;;;;;;;;6250171;22;20134;-71
2022/06/05 14:38:46;;;;;;;18.88;8.55;;;;;;;;;;6276698;22;20019;-69
2022/06/05 14:41:20;;;;;;;5.75;4.25;;;;;;;;;;6276450;22;20024;-70
2022/06/05 14:44:11;;;;;;;6.63;3.28;;;;;;;;;;6249593;22;20075;-69
2022/06/05 14:46:38;;;;;;;7.20;4.25;;;;;;;;;;6276378;22;20016;-71
2022/06/05 14:49:12;;;;;;;5.40;3.20;;;;;;;;;;6276688;22;20019;-71
2022/06/05 14:51:44;;;;;;;5.32;3.80;;;;;;;;;;6276563;22;20086;-71
2022/06/05 14:54:15;;;;;;;6.45;3.33;;;;;;;;;;6277089;22;20042;-71
2022/06/05 14:59:53;;;;;;;4.55;2.67;;;;;;;;;;6276717;22;20026;-70
2022/06/05 15:02:24;;;;;;;5.72;3.15;;;;;;;;;;6250013;22;20445;-72
2022/06/05 15:04:51;;;;;;;5.78;2.80;;;;;;;;;;6276884;22;20038;-70
2022/06/05 15:07:24;;;;;;;5.22;2.60;;;;;;;;;;6276970;22;20020;-73
2022/06/05 15:10:06;;;;;;;6.97;3.43;;;;;;;;;;6277381;22;20395;-71
2022/06/05 15:12:38;;;;;;;6.57;3.00;;;;;;;;;;6276696;22;20020;-70
2022/06/05 15:15:14;;;;;;;8.13;4.10;;;;;;;;;;6276432;22;20020;-72
2022/06/05 15:17:46;;;;;;;5.40;3.10;;;;;;;;;;6276785;22;20012;-70
2022/06/05 15:20:16;;;;;;;9.77;4.03;;;;;;;;;;6276446;22;20061;-71